Time;durP1;ratioP1;P1;durP2;ratioP2;P2;SDS_P1;SDS_P2;PMS_P1;PMS_P2;Temp;Humidity;BMP_temperature;BMP_pressure;BME280_temperature;BME280_humidity;BME280_pressure;Samples;Min_cycle;Max_cycle;Signal;HPM_P1;HPM_P2
2022/03/04 00:01:57;;;;;;;1.23;0.70;;;;;;;;;;5103117;28;20394;-73
2022/03/04 00:04:26;;;;;;;4.10;0.75;;;;;;;;;;5103084;28;20031;-73
2022/03/04 00:06:53;;;;;;;1.45;0.60;;;;;;;;;;5101583;28;20028;-73
2022/03/04 00:09:20;;;;;;;2.42;0.60;;;;;;;;;;5102448;28;20032;-74
2022/03/04 00:11:47;;;;;;;2.92;0.85;;;;;;;;;;5102956;28;20028;-73
2022/03/04 00:14:12;;;;;;;3.92;0.85;;;;;;;;;;5102789;28;20024;-73
2022/03/04 00:16:37;;;;;;;2.50;0.43;;;;;;;;;;5103399;28;20036;-74
2022/03/04 00:19:12;;;;;;;3.08;0.50;;;;;;;;;;5102648;28;20098;-73
2022/03/04 00:21:43;;;;;;;2.30;0.55;;;;;;;;;;5102928;28;20024;-73
2022/03/04 00:24:10;;;;;;;3.15;0.68;;;;;;;;;;5102484;28;20039;-73
2022/03/04 00:26:37;;;;;;;2.97;0.80;;;;;;;;;;5102677;28;20044;-73
2022/03/04 00:29:04;;;;;;;5.85;0.40;;;;;;;;;;5102864;28;20320;-73
2022/03/04 00:31:29;;;;;;;3.63;0.75;;;;;;;;;;5102840;28;20069;-74
2022/03/04 00:33:55;;;;;;;4.75;0.80;;;;;;;;;;5102578;28;20050;-73
2022/03/04 00:36:24;;;;;;;6.55;0.80;;;;;;;;;;5102842;28;20377;-73
2022/03/04 00:38:50;;;;;;;1.13;0.47;;;;;;;;;;5102645;28;20032;-74
2022/03/04 00:41:18;;;;;;;4.03;0.57;;;;;;;;;;5102983;28;20099;-74
2022/03/04 00:43:43;;;;;;;3.40;0.63;;;;;;;;;;5102546;28;20024;-73
2022/03/04 00:46:09;;;;;;;5.55;0.90;;;;;;;;;;5102869;28;20080;-73
2022/03/04 00:48:34;;;;;;;5.20;1.00;;;;;;;;;;5102768;28;20024;-73
2022/03/04 00:51:00;;;;;;;3.40;0.82;;;;;;;;;;5102608;28;20490;-73
2022/03/04 00:53:25;;;;;;;2.05;0.57;;;;;;;;;;5101001;28;20024;-73
2022/03/04 00:55:51;;;;;;;9.50;0.88;;;;;;;;;;5102880;28;20029;-74
2022/03/04 00:58:16;;;;;;;4.00;1.00;;;;;;;;;;5102616;28;20039;-73
2022/03/04 01:00:45;;;;;;;4.03;0.70;;;;;;;;;;5101274;28;20139;-73
2022/03/04 01:03:10;;;;;;;8.40;0.73;;;;;;;;;;5102613;28;20024;-73
2022/03/04 01:05:37;;;;;;;4.97;0.93;;;;;;;;;;5100860;28;20253;-73
2022/03/04 01:08:02;;;;;;;4.70;0.73;;;;;;;;;;5102584;28;20027;-73
2022/03/04 01:10:28;;;;;;;5.32;0.75;;;;;;;;;;5102187;28;20103;-73
2022/03/04 01:12:53;;;;;;;3.90;0.65;;;;;;;;;;5102344;28;20049;-73
2022/03/04 01:15:18;;;;;;;2.22;0.40;;;;;;;;;;5101308;28;20028;-73
2022/03/04 01:17:44;;;;;;;4.13;0.80;;;;;;;;;;5102779;28;20032;-73
2022/03/04 01:20:09;;;;;;;3.35;0.52;;;;;;;;;;5104397;28;20236;-72
2022/03/04 01:22:35;;;;;;;0.98;0.40;;;;;;;;;;5106185;28;20039;-73
2022/03/04 01:25:00;;;;;;;3.08;0.68;;;;;;;;;;5105896;28;20043;-73
2022/03/04 01:27:27;;;;;;;6.38;0.90;;;;;;;;;;5106031;28;20052;-73
2022/03/04 01:29:52;;;;;;;6.80;1.20;;;;;;;;;;5105928;28;20089;-73
2022/03/04 01:32:18;;;;;;;3.08;0.68;;;;;;;;;;5104807;28;20043;-73
2022/03/04 01:34:43;;;;;;;4.70;1.00;;;;;;;;;;5105835;28;20081;-73
2022/03/04 01:37:09;;;;;;;8.60;0.90;;;;;;;;;;5105722;28;20039;-73
2022/03/04 01:39:35;;;;;;;4.63;0.70;;;;;;;;;;5104071;28;20024;-73
2022/03/04 01:42:01;;;;;;;7.45;0.75;;;;;;;;;;5104686;28;20559;-73
2022/03/04 01:44:26;;;;;;;3.40;0.77;;;;;;;;;;5104216;28;20023;-73
2022/03/04 01:46:51;;;;;;;4.53;0.63;;;;;;;;;;5105973;28;20110;-73
2022/03/04 01:49:17;;;;;;;5.68;0.93;;;;;;;;;;5104326;28;20115;-73
2022/03/04 01:51:43;;;;;;;6.85;0.80;;;;;;;;;;5105699;28;20024;-73
2022/03/04 01:54:08;;;;;;;9.15;0.98;;;;;;;;;;5103825;28;20032;-73
2022/03/04 01:56:34;;;;;;;7.72;1.13;;;;;;;;;;5105462;28;20112;-73
2022/03/04 01:58:59;;;;;;;3.58;0.60;;;;;;;;;;5105578;28;20039;-73
2022/03/04 02:01:25;;;;;;;5.38;1.33;;;;;;;;;;5105528;28;20024;-73
2022/03/04 02:03:51;;;;;;;3.80;1.08;;;;;;;;;;5105050;28;20032;-73
2022/03/04 02:06:17;;;;;;;4.80;0.73;;;;;;;;;;5105315;28;20058;-73
2022/03/04 02:08:42;;;;;;;10.60;0.85;;;;;;;;;;5105255;28;20049;-73
2022/03/04 02:11:08;;;;;;;8.20;0.85;;;;;;;;;;5105143;28;20043;-73
2022/03/04 02:13:34;;;;;;;3.45;0.70;;;;;;;;;;5103613;28;20027;-73
2022/03/04 02:16:00;;;;;;;10.00;0.73;;;;;;;;;;5103093;28;20056;-73
2022/03/04 02:18:25;;;;;;;5.60;0.77;;;;;;;;;;5104870;28;20035;-73
2022/03/04 02:20:52;;;;;;;2.38;0.60;;;;;;;;;;5103989;28;20055;-73
2022/03/04 02:23:19;;;;;;;4.10;0.68;;;;;;;;;;5103283;28;20024;-73
2022/03/04 02:25:48;;;;;;;5.10;0.65;;;;;;;;;;5105042;28;20135;-74
2022/03/04 02:28:13;;;;;;;6.40;0.98;;;;;;;;;;5105473;28;20127;-73
2022/03/04 02:30:39;;;;;;;5.03;0.90;;;;;;;;;;5103056;28;20028;-73
2022/03/04 02:33:06;;;;;;;6.82;0.70;;;;;;;;;;5104779;28;20056;-73
2022/03/04 02:35:32;;;;;;;2.15;0.68;;;;;;;;;;5103345;28;20036;-73
2022/03/04 02:37:58;;;;;;;5.60;0.70;;;;;;;;;;5104617;28;20558;-73
2022/03/04 02:40:24;;;;;;;4.90;0.75;;;;;;;;;;5103014;28;20048;-73
2022/03/04 02:42:50;;;;;;;1.90;0.55;;;;;;;;;;5103452;28;20050;-74
2022/03/04 02:45:15;;;;;;;6.35;0.82;;;;;;;;;;5104764;28;20503;-73
2022/03/04 02:47:42;;;;;;;10.68;1.10;;;;;;;;;;5104577;28;20032;-73
2022/03/04 02:50:08;;;;;;;4.80;0.70;;;;;;;;;;5102679;28;20042;-73
2022/03/04 02:52:33;;;;;;;3.42;0.85;;;;;;;;;;5104548;28;20524;-74
2022/03/04 02:54:59;;;;;;;4.75;0.80;;;;;;;;;;5104571;28;20106;-74
2022/03/04 02:57:24;;;;;;;8.02;0.80;;;;;;;;;;5104292;28;20031;-73
2022/03/04 02:59:50;;;;;;;5.47;0.60;;;;;;;;;;5102847;28;20028;-73
2022/03/04 03:02:15;;;;;;;12.98;1.60;;;;;;;;;;5104079;28;20025;-73
2022/03/04 03:04:40;;;;;;;4.72;0.82;;;;;;;;;;5102958;28;20035;-73
2022/03/04 03:07:06;;;;;;;4.78;1.23;;;;;;;;;;5103967;28;20039;-73
2022/03/04 03:09:31;;;;;;;11.95;1.55;;;;;;;;;;5103968;28;20080;-73
2022/03/04 03:11:57;;;;;;;4.85;0.57;;;;;;;;;;5104175;28;20227;-73
2022/03/04 03:14:22;;;;;;;3.03;0.57;;;;;;;;;;5103769;28;20466;-73
2022/03/04 03:16:47;;;;;;;3.70;1.10;;;;;;;;;;5104685;28;20032;-74
2022/03/04 03:19:13;;;;;;;4.68;0.80;;;;;;;;;;5103812;28;20064;-73
2022/03/04 03:21:38;;;;;;;8.80;1.15;;;;;;;;;;5103712;28;20028;-73
2022/03/04 03:24:05;;;;;;;4.05;0.77;;;;;;;;;;5102345;28;20114;-73
2022/03/04 03:26:30;;;;;;;6.78;1.10;;;;;;;;;;5103493;28;20052;-73
2022/03/04 03:28:55;;;;;;;7.38;1.33;;;;;;;;;;5103586;28;20027;-74
2022/03/04 03:31:21;;;;;;;8.70;1.42;;;;;;;;;;5103779;28;20031;-73
2022/03/04 03:33:47;;;;;;;7.72;0.70;;;;;;;;;;5102292;28;20052;-73
2022/03/04 03:36:12;;;;;;;5.95;0.85;;;;;;;;;;5102328;28;20066;-74
2022/03/04 03:38:38;;;;;;;4.22;1.25;;;;;;;;;;5103534;28;20025;-73
2022/03/04 03:41:04;;;;;;;2.78;0.60;;;;;;;;;;5103717;28;20073;-74
2022/03/04 03:43:29;;;;;;;7.03;0.90;;;;;;;;;;5102906;28;20055;-73
2022/03/04 03:45:55;;;;;;;2.85;0.57;;;;;;;;;;5103849;28;20028;-74
2022/03/04 03:48:20;;;;;;;12.00;1.08;;;;;;;;;;5101983;28;20020;-74
2022/03/04 03:50:46;;;;;;;6.65;1.08;;;;;;;;;;5103644;28;20028;-74
2022/03/04 03:53:11;;;;;;;4.60;0.73;;;;;;;;;;5103240;28;20467;-74
2022/03/04 03:55:38;;;;;;;8.15;0.90;;;;;;;;;;5103565;28;20035;-74
2022/03/04 03:58:03;;;;;;;6.10;1.08;;;;;;;;;;5103168;28;20060;-73
2022/03/04 04:00:28;;;;;;;8.13;0.95;;;;;;;;;;5103470;28;20035;-73
2022/03/04 04:02:54;;;;;;;0.65;0.38;;;;;;;;;;5103262;28;20032;-74
2022/03/04 04:05:19;;;;;;;3.90;0.73;;;;;;;;;;5103021;28;20111;-73
2022/03/04 04:07:45;;;;;;;2.80;0.80;;;;;;;;;;5101908;28;20019;-74
2022/03/04 04:10:10;;;;;;;7.75;1.52;;;;;;;;;;5102985;28;20028;-73
2022/03/04 04:12:35;;;;;;;1.98;0.75;;;;;;;;;;5103130;28;20024;-74
2022/03/04 04:15:01;;;;;;;4.55;1.00;;;;;;;;;;5103026;28;20100;-74
2022/03/04 04:17:27;;;;;;;5.10;0.68;;;;;;;;;;5103228;28;20055;-73
2022/03/04 04:19:53;;;;;;;7.93;1.50;;;;;;;;;;5101680;28;20028;-73
2022/03/04 04:22:19;;;;;;;5.38;0.80;;;;;;;;;;5103124;28;20228;-73
2022/03/04 04:24:44;;;;;;;1.83;0.47;;;;;;;;;;5101487;28;20027;-74
2022/03/04 04:27:10;;;;;;;4.50;1.10;;;;;;;;;;5101494;28;20040;-74
2022/03/04 04:29:35;;;;;;;3.97;0.60;;;;;;;;;;5102933;28;20028;-73
2022/03/04 04:32:01;;;;;;;5.18;1.05;;;;;;;;;;5102948;28;20077;-74
2022/03/04 04:34:26;;;;;;;4.47;0.68;;;;;;;;;;5102466;28;20035;-74
2022/03/04 04:36:51;;;;;;;3.42;0.52;;;;;;;;;;5102923;28;20035;-74
2022/03/04 04:39:17;;;;;;;4.50;1.10;;;;;;;;;;5102869;28;20066;-73
2022/03/04 04:41:44;;;;;;;6.22;0.73;;;;;;;;;;5103163;28;20042;-73
2022/03/04 04:44:10;;;;;;;5.75;0.70;;;;;;;;;;5102811;28;20032;-73
2022/03/04 04:46:35;;;;;;;4.57;0.68;;;;;;;;;;5102790;28;20043;-74
2022/03/04 04:49:01;;;;;;;12.05;1.40;;;;;;;;;;5102681;28;20646;-74
2022/03/04 04:51:26;;;;;;;7.63;0.88;;;;;;;;;;5102648;28;20030;-74
2022/03/04 04:53:53;;;;;;;3.08;1.00;;;;;;;;;;5104485;28;20095;-73
2022/03/04 04:56:19;;;;;;;2.92;0.73;;;;;;;;;;5106501;28;20029;-74
2022/03/04 04:58:44;;;;;;;3.45;0.70;;;;;;;;;;5106138;28;20537;-74
2022/03/04 05:01:10;;;;;;;5.70;0.77;;;;;;;;;;5106598;28;20050;-74
2022/03/04 05:03:35;;;;;;;1.85;0.40;;;;;;;;;;5106065;28;20034;-73
2022/03/04 05:06:00;;;;;;;3.65;0.80;;;;;;;;;;5106609;28;20032;-73
2022/03/04 05:08:27;;;;;;;6.95;0.70;;;;;;;;;;5106438;28;20028;-73
2022/03/04 05:10:52;;;;;;;4.55;0.70;;;;;;;;;;5106389;28;20035;-74
2022/03/04 05:13:18;;;;;;;2.67;0.70;;;;;;;;;;5104873;28;20024;-73
2022/03/04 05:15:43;;;;;;;4.88;0.88;;;;;;;;;;5106234;28;20039;-74
2022/03/04 05:18:09;;;;;;;7.28;1.17;;;;;;;;;;5106204;28;20022;-73
2022/03/04 05:20:35;;;;;;;5.07;0.70;;;;;;;;;;5106363;28;20028;-75
2022/03/04 05:23:00;;;;;;;2.55;0.60;;;;;;;;;;5106244;28;20038;-74
2022/03/04 05:25:26;;;;;;;7.45;0.75;;;;;;;;;;5104566;28;20057;-72
2022/03/04 05:27:52;;;;;;;1.83;0.35;;;;;;;;;;5106440;28;20039;-72
2022/03/04 05:30:17;;;;;;;4.90;0.70;;;;;;;;;;5105566;28;20032;-72
2022/03/04 05:32:43;;;;;;;7.65;0.80;;;;;;;;;;5106065;28;20031;-72
2022/03/04 05:35:08;;;;;;;2.47;0.63;;;;;;;;;;5106084;28;20377;-72
2022/03/04 05:37:34;;;;;;;1.15;0.30;;;;;;;;;;5105818;28;20024;-72
2022/03/04 05:39:59;;;;;;;4.65;0.70;;;;;;;;;;5104471;28;20096;-73
2022/03/04 05:42:25;;;;;;;2.15;0.70;;;;;;;;;;5106201;28;20031;-72
2022/03/04 05:44:51;;;;;;;4.45;0.65;;;;;;;;;;5105478;28;20128;-73
2022/03/04 05:47:16;;;;;;;3.42;0.77;;;;;;;;;;5106111;28;20458;-73
2022/03/04 05:49:42;;;;;;;3.95;0.82;;;;;;;;;;5104447;28;20021;-72
2022/03/04 05:52:07;;;;;;;1.80;0.60;;;;;;;;;;5104562;28;20028;-73
2022/03/04 05:54:32;;;;;;;1.58;0.43;;;;;;;;;;5104362;28;20020;-73
2022/03/04 05:56:58;;;;;;;4.60;0.80;;;;;;;;;;5105926;28;20032;-72
2022/03/04 05:59:24;;;;;;;1.10;0.57;;;;;;;;;;5105639;28;20030;-72
2022/03/04 06:01:50;;;;;;;4.63;0.88;;;;;;;;;;5105556;28;20275;-72
2022/03/04 06:04:16;;;;;;;4.40;0.60;;;;;;;;;;5105164;28;20076;-72
2022/03/04 06:06:41;;;;;;;7.78;0.90;;;;;;;;;;5104936;28;20024;-72
2022/03/04 06:09:07;;;;;;;4.65;0.70;;;;;;;;;;5105588;28;20024;-72
2022/03/04 06:11:32;;;;;;;5.03;0.85;;;;;;;;;;5105644;28;20039;-72
2022/03/04 06:13:57;;;;;;;3.53;0.90;;;;;;;;;;5105169;28;20040;-72
2022/03/04 06:16:23;;;;;;;4.22;1.05;;;;;;;;;;5105410;28;20086;-72
2022/03/04 06:18:49;;;;;;;2.97;0.88;;;;;;;;;;5105192;28;20020;-72
2022/03/04 06:21:14;;;;;;;4.80;0.73;;;;;;;;;;5105123;28;20024;-72
2022/03/04 06:23:39;;;;;;;1.23;0.50;;;;;;;;;;5105013;28;20052;-72
2022/03/04 06:26:05;;;;;;;4.22;0.63;;;;;;;;;;5105046;28;20077;-72
2022/03/04 06:28:31;;;;;;;3.13;0.40;;;;;;;;;;5105121;28;20035;-72
2022/03/04 06:30:56;;;;;;;5.13;0.77;;;;;;;;;;5103446;28;20048;-73
2022/03/04 06:33:30;;;;;;;3.13;0.65;;;;;;;;;;5105097;28;20695;-72
2022/03/04 06:36:00;;;;;;;5.88;0.75;;;;;;;;;;5104936;28;20032;-73
2022/03/04 06:38:25;;;;;;;3.47;0.73;;;;;;;;;;5104869;28;20034;-72
2022/03/04 06:40:51;;;;;;;6.95;0.90;;;;;;;;;;5104830;28;20036;-73
2022/03/04 06:43:17;;;;;;;2.75;0.68;;;;;;;;;;5104443;28;20080;-72
2022/03/04 06:45:45;;;;;;;5.22;0.60;;;;;;;;;;5103451;28;20032;-73
2022/03/04 06:48:11;;;;;;;1.63;0.73;;;;;;;;;;5104581;28;20024;-72
2022/03/04 06:50:37;;;;;;;3.95;0.80;;;;;;;;;;5104439;28;20066;-72
2022/03/04 06:53:03;;;;;;;3.58;0.60;;;;;;;;;;5103345;28;20024;-72
2022/03/04 06:55:30;;;;;;;3.88;0.93;;;;;;;;;;5103358;28;20484;-72
2022/03/04 06:57:55;;;;;;;5.18;0.75;;;;;;;;;;5104525;28;20108;-72
2022/03/04 07:00:22;;;;;;;3.95;0.85;;;;;;;;;;5104421;28;20406;-72
2022/03/04 07:02:47;;;;;;;3.00;0.60;;;;;;;;;;5104476;28;20049;-72
2022/03/04 07:05:14;;;;;;;1.27;0.57;;;;;;;;;;5104333;28;20028;-72
2022/03/04 07:07:39;;;;;;;2.53;0.98;;;;;;;;;;5104338;28;20378;-72
2022/03/04 07:10:05;;;;;;;2.38;0.73;;;;;;;;;;5102819;28;20032;-72
2022/03/04 07:12:31;;;;;;;1.73;0.60;;;;;;;;;;5104251;28;20027;-72
2022/03/04 07:14:56;;;;;;;1.70;0.47;;;;;;;;;;5102730;28;20024;-72
2022/03/04 07:17:23;;;;;;;3.83;0.73;;;;;;;;;;5103226;28;20038;-72
2022/03/04 07:19:48;;;;;;;2.72;0.77;;;;;;;;;;5104158;28;20036;-72
2022/03/04 07:22:14;;;;;;;3.17;0.60;;;;;;;;;;5104163;28;20382;-72
2022/03/04 07:24:39;;;;;;;2.30;0.70;;;;;;;;;;5102347;28;20031;-72
2022/03/04 07:27:05;;;;;;;2.63;0.60;;;;;;;;;;5103815;28;20267;-73
2022/03/04 07:29:30;;;;;;;3.03;0.63;;;;;;;;;;5103700;28;20128;-73
2022/03/04 07:31:56;;;;;;;1.63;0.50;;;;;;;;;;5103918;28;20032;-72
2022/03/04 07:34:23;;;;;;;4.05;0.70;;;;;;;;;;5102152;28;20066;-73
2022/03/04 07:36:48;;;;;;;2.30;0.65;;;;;;;;;;5102694;28;20046;-73
2022/03/04 07:39:14;;;;;;;4.85;1.15;;;;;;;;;;5103305;28;20024;-73
2022/03/04 07:41:40;;;;;;;3.67;0.85;;;;;;;;;;5102382;28;20028;-73
2022/03/04 07:44:05;;;;;;;4.13;1.15;;;;;;;;;;5103344;28;20084;-73
2022/03/04 07:46:31;;;;;;;2.72;0.80;;;;;;;;;;5103590;28;20040;-73
2022/03/04 07:48:57;;;;;;;1.90;0.32;;;;;;;;;;5102077;28;20024;-73
2022/03/04 07:51:22;;;;;;;1.63;0.68;;;;;;;;;;5103785;28;20020;-73
2022/03/04 07:53:48;;;;;;;2.22;0.50;;;;;;;;;;5103341;28;20036;-74
2022/03/04 07:56:13;;;;;;;9.07;0.82;;;;;;;;;;5103658;28;20016;-73
2022/03/04 07:58:39;;;;;;;2.17;0.57;;;;;;;;;;5101951;28;20027;-73
2022/03/04 08:01:04;;;;;;;2.42;0.50;;;;;;;;;;5103456;28;20027;-73
2022/03/04 08:03:29;;;;;;;1.85;0.50;;;;;;;;;;5101784;28;20066;-73
2022/03/04 08:05:55;;;;;;;1.35;0.43;;;;;;;;;;5101968;28;20028;-73
2022/03/04 08:08:20;;;;;;;2.72;0.70;;;;;;;;;;5103268;28;20036;-73
2022/03/04 08:10:46;;;;;;;2.72;1.00;;;;;;;;;;5103372;28;20024;-73
2022/03/04 08:13:11;;;;;;;2.55;0.47;;;;;;;;;;5102983;28;20047;-73
2022/03/04 08:15:36;;;;;;;2.25;0.57;;;;;;;;;;5103417;28;20477;-73
2022/03/04 08:18:02;;;;;;;1.52;0.40;;;;;;;;;;5103515;28;20028;-73
2022/03/04 08:20:29;;;;;;;2.10;0.60;;;;;;;;;;5103279;28;20036;-73
2022/03/04 08:22:54;;;;;;;2.80;0.77;;;;;;;;;;5103113;28;20024;-73
2022/03/04 08:25:19;;;;;;;1.65;0.50;;;;;;;;;;5102659;28;20020;-73
2022/03/04 08:27:45;;;;;;;1.98;0.30;;;;;;;;;;5103479;28;20106;-73
2022/03/04 08:30:12;;;;;;;1.25;0.40;;;;;;;;;;5108304;28;20060;-73
2022/03/04 08:32:38;;;;;;;0.35;0.30;;;;;;;;;;5109688;28;20068;-73
2022/03/04 08:35:04;;;;;;;1.80;0.45;;;;;;;;;;5109734;28;20020;-73
2022/03/04 08:37:30;;;;;;;1.45;0.40;;;;;;;;;;5109893;28;20028;-73
2022/03/04 08:39:55;;;;;;;2.35;0.70;;;;;;;;;;5109694;28;20065;-73
2022/03/04 08:42:21;;;;;;;2.05;0.47;;;;;;;;;;5109923;28;20051;-73
2022/03/04 08:44:46;;;;;;;3.90;0.70;;;;;;;;;;5109416;28;20541;-73
2022/03/04 08:47:12;;;;;;;0.38;0.22;;;;;;;;;;5109507;28;20535;-73
2022/03/04 08:49:37;;;;;;;2.90;0.50;;;;;;;;;;5109797;28;20028;-74
2022/03/04 08:52:03;;;;;;;1.23;0.20;;;;;;;;;;5109455;28;20024;-73
2022/03/04 08:54:29;;;;;;;0.95;0.32;;;;;;;;;;5109289;28;20036;-73
2022/03/04 08:56:54;;;;;;;1.67;0.30;;;;;;;;;;5110051;28;20402;-73
2022/03/04 08:59:20;;;;;;;2.42;0.60;;;;;;;;;;5109409;28;20020;-73
2022/03/04 09:01:46;;;;;;;1.75;0.30;;;;;;;;;;5108235;28;20024;-73
2022/03/04 09:04:14;;;;;;;1.23;0.20;;;;;;;;;;5109387;28;20051;-73
2022/03/04 09:06:40;;;;;;;1.17;0.30;;;;;;;;;;5108206;28;20036;-73
2022/03/04 09:09:05;;;;;;;1.30;0.30;;;;;;;;;;5107832;28;20047;-73
2022/03/04 09:11:31;;;;;;;1.10;0.30;;;;;;;;;;5107642;28;20054;-73
2022/03/04 09:13:56;;;;;;;2.13;0.50;;;;;;;;;;5109191;28;20024;-74
2022/03/04 09:16:22;;;;;;;4.57;0.45;;;;;;;;;;5109864;28;20052;-73
2022/03/04 09:18:48;;;;;;;0.85;0.25;;;;;;;;;;5109348;28;20035;-73
2022/03/04 09:21:15;;;;;;;0.63;0.30;;;;;;;;;;5109363;28;20036;-73
2022/03/04 09:23:43;;;;;;;0.47;0.20;;;;;;;;;;5108774;28;20043;-73
2022/03/04 09:26:08;;;;;;;1.17;0.40;;;;;;;;;;5109327;28;20048;-73
2022/03/04 09:28:34;;;;;;;1.55;0.40;;;;;;;;;;5109043;28;20074;-73
2022/03/04 09:30:59;;;;;;;4.28;0.40;;;;;;;;;;5107864;28;20024;-73
2022/03/04 09:33:25;;;;;;;1.23;0.52;;;;;;;;;;5107721;28;20095;-73
2022/03/04 09:35:50;;;;;;;0.95;0.32;;;;;;;;;;5108996;28;20047;-73
2022/03/04 09:38:16;;;;;;;1.58;0.35;;;;;;;;;;5108846;28;20031;-73
2022/03/04 09:40:41;;;;;;;0.30;0.20;;;;;;;;;;5104600;28;20032;-74
2022/03/04 09:43:08;;;;;;;1.75;0.50;;;;;;;;;;5104535;28;20016;-73
2022/03/04 09:45:34;;;;;;;1.17;0.40;;;;;;;;;;5105660;28;20047;-73
2022/03/04 09:48:03;;;;;;;0.60;0.25;;;;;;;;;;5105599;28;20032;-72
2022/03/04 09:50:33;;;;;;;0.63;0.40;;;;;;;;;;5104203;28;20122;-72
2022/03/04 09:52:58;;;;;;;0.60;0.20;;;;;;;;;;5103855;28;20061;-72
2022/03/04 09:55:24;;;;;;;1.38;0.35;;;;;;;;;;5104835;28;20096;-72
2022/03/04 09:57:49;;;;;;;0.43;0.35;;;;;;;;;;5104459;28;20028;-72
2022/03/04 10:00:15;;;;;;;2.00;0.38;;;;;;;;;;5105548;28;20062;-73
2022/03/04 10:02:40;;;;;;;0.20;0.20;;;;;;;;;;5103842;28;20040;-72
2022/03/04 10:05:08;;;;;;;3.72;0.65;;;;;;;;;;5104080;28;20390;-72
2022/03/04 10:07:41;;;;;;;0.88;0.32;;;;;;;;;;5105423;28;20032;-72
2022/03/04 10:10:18;;;;;;;0.80;0.38;;;;;;;;;;5104528;28;20020;-72
2022/03/04 10:12:56;;;;;;;0.38;0.20;;;;;;;;;;5103628;28;20032;-72
2022/03/04 10:15:23;;;;;;;0.85;0.30;;;;;;;;;;5104947;28;20081;-72
2022/03/04 10:17:58;;;;;;;0.75;0.30;;;;;;;;;;5105373;28;20042;-72
2022/03/04 10:20:43;;;;;;;0.68;0.20;;;;;;;;;;5103178;28;20620;-72
2022/03/04 10:23:17;;;;;;;3.25;0.60;;;;;;;;;;5104175;28;20128;-72
2022/03/04 10:25:48;;;;;;;0.57;0.30;;;;;;;;;;5103202;28;20040;-73
2022/03/04 10:28:15;;;;;;;0.20;0.20;;;;;;;;;;5103079;28;20064;-73
2022/03/04 10:30:46;;;;;;;3.13;0.77;;;;;;;;;;5104149;28;20028;-74
2022/03/04 10:33:20;;;;;;;1.80;0.50;;;;;;;;;;5104787;28;20034;-73
2022/03/04 10:35:50;;;;;;;2.25;0.50;;;;;;;;;;5104514;28;20229;-73
2022/03/04 10:38:20;;;;;;;0.25;0.22;;;;;;;;;;5104533;28;20063;-73
2022/03/04 10:40:47;;;;;;;0.10;0.10;;;;;;;;;;5104095;28;20031;-74
2022/03/04 10:43:22;;;;;;;3.33;0.52;;;;;;;;;;5103594;28;20021;-73
2022/03/04 10:45:58;;;;;;;1.42;0.40;;;;;;;;;;5104403;28;20035;-73
2022/03/04 10:48:26;;;;;;;3.55;0.60;;;;;;;;;;5103779;28;20027;-73
2022/03/04 10:50:56;;;;;;;0.22;0.22;;;;;;;;;;5103892;28;20044;-73
2022/03/04 10:53:33;;;;;;;1.58;0.30;;;;;;;;;;5102915;28;20424;-73
2022/03/04 10:56:04;;;;;;;0.35;0.30;;;;;;;;;;5102355;28;20024;-73
2022/03/04 10:58:34;;;;;;;3.03;0.50;;;;;;;;;;5103309;28;20065;-73
2022/03/04 11:01:02;;;;;;;4.78;0.60;;;;;;;;;;5104260;28;20036;-73
2022/03/04 11:03:29;;;;;;;0.93;0.30;;;;;;;;;;5103953;28;20385;-73
2022/03/04 11:05:56;;;;;;;0.68;0.40;;;;;;;;;;5103987;28;20082;-73
2022/03/04 11:08:22;;;;;;;2.95;0.50;;;;;;;;;;5101861;28;20036;-73
2022/03/04 11:10:49;;;;;;;2.50;0.43;;;;;;;;;;5104299;28;20048;-73
2022/03/04 11:13:15;;;;;;;0.30;0.20;;;;;;;;;;5101700;28;20035;-73
2022/03/04 11:15:42;;;;;;;0.73;0.40;;;;;;;;;;5104248;28;20048;-74
2022/03/04 11:18:10;;;;;;;1.67;0.40;;;;;;;;;;5102591;28;20048;-73
2022/03/04 11:20:39;;;;;;;0.85;0.30;;;;;;;;;;5103950;28;20035;-73
2022/03/04 11:23:07;;;;;;;2.50;0.55;;;;;;;;;;5103723;28;20028;-73
2022/03/04 11:25:44;;;;;;;1.50;0.30;;;;;;;;;;5102091;28;20066;-73
2022/03/04 11:28:13;;;;;;;3.45;0.63;;;;;;;;;;5103824;28;20109;-73
2022/03/04 11:30:46;;;;;;;2.28;0.38;;;;;;;;;;5103749;28;20030;-73
2022/03/04 11:33:31;;;;;;;0.35;0.20;;;;;;;;;;5102180;28;20027;-72
2022/03/04 11:35:59;;;;;;;2.72;0.35;;;;;;;;;;5103951;28;20044;-73
2022/03/04 11:38:46;;;;;;;5.03;0.50;;;;;;;;;;5103481;28;20028;-72
2022/03/04 11:41:17;;;;;;;2.08;0.30;;;;;;;;;;5102317;28;20016;-73
2022/03/04 11:43:50;;;;;;;1.60;0.20;;;;;;;;;;5103508;28;20028;-73
2022/03/04 11:46:21;;;;;;;0.32;0.30;;;;;;;;;;5103622;28;20032;-72
2022/03/04 11:49:25;;;;;;;3.38;0.50;;;;;;;;;;5103030;28;20062;-73
2022/03/04 11:52:15;;;;;;;2.42;0.45;;;;;;;;;;5102002;28;20031;-73
2022/03/04 11:54:50;;;;;;;1.80;0.40;;;;;;;;;;5102236;28;20024;-73
2022/03/04 11:57:20;;;;;;;0.95;0.22;;;;;;;;;;5103570;28;20077;-73
2022/03/04 12:00:00;;;;;;;1.05;0.50;;;;;;;;;;5103354;28;20034;-73
2022/03/04 12:02:38;;;;;;;1.90;0.30;;;;;;;;;;5103481;28;20028;-73
2022/03/04 12:05:29;;;;;;;2.90;0.20;;;;;;;;;;5102925;28;20028;-73
2022/03/04 12:07:54;;;;;;;0.93;0.30;;;;;;;;;;5103879;28;20034;-73
2022/03/04 12:10:22;;;;;;;2.03;0.40;;;;;;;;;;5103380;28;20110;-72
2022/03/04 12:13:08;;;;;;;1.95;0.40;;;;;;;;;;5103353;28;20031;-72
2022/03/04 12:15:44;;;;;;;1.70;0.30;;;;;;;;;;5103165;28;20042;-72
2022/03/04 12:18:30;;;;;;;2.63;0.40;;;;;;;;;;5103215;28;20039;-72
2022/03/04 12:20:58;;;;;;;0.50;0.25;;;;;;;;;;5101796;28;20085;-73
2022/03/04 12:23:37;;;;;;;1.50;0.38;;;;;;;;;;5102830;28;20087;-73
2022/03/04 12:26:04;;;;;;;0.32;0.25;;;;;;;;;;5102229;28;20036;-72
2022/03/04 12:28:36;;;;;;;0.28;0.20;;;;;;;;;;5102333;28;20112;-72
2022/03/04 12:31:01;;;;;;;1.38;0.38;;;;;;;;;;5102719;28;20030;-72
2022/03/04 12:33:30;;;;;;;0.95;0.22;;;;;;;;;;5101256;28;20031;-72
2022/03/04 12:36:00;;;;;;;0.63;0.38;;;;;;;;;;5102803;28;20025;-72
2022/03/04 12:38:30;;;;;;;0.95;0.35;;;;;;;;;;5102713;28;20157;-72
2022/03/04 12:40:56;;;;;;;2.83;0.30;;;;;;;;;;5103120;28;20031;-72
2022/03/04 12:43:22;;;;;;;1.52;0.50;;;;;;;;;;5102838;28;20032;-72
2022/03/04 12:45:47;;;;;;;1.17;0.30;;;;;;;;;;5103104;28;20028;-73
2022/03/04 12:48:13;;;;;;;0.20;0.20;;;;;;;;;;5102693;28;20370;-73
2022/03/04 12:50:41;;;;;;;3.10;0.43;;;;;;;;;;5101085;28;20472;-74
2022/03/04 12:53:33;;;;;;;2.25;0.40;;;;;;;;;;5102670;28;20032;-73
2022/03/04 12:56:01;;;;;;;1.65;0.40;;;;;;;;;;5100311;28;20040;-72
2022/03/04 12:58:36;;;;;;;0.55;0.45;;;;;;;;;;5101340;28;20489;-72
2022/03/04 13:01:03;;;;;;;2.20;0.30;;;;;;;;;;5102918;28;20032;-72
2022/03/04 13:03:31;;;;;;;1.25;0.40;;;;;;;;;;5100050;28;20107;-71
2022/03/04 13:05:57;;;;;;;0.90;0.20;;;;;;;;;;5102743;28;20035;-72
2022/03/04 13:08:22;;;;;;;3.95;0.47;;;;;;;;;;5101300;28;20036;-72
2022/03/04 13:10:47;;;;;;;1.58;0.38;;;;;;;;;;5100479;28;20031;-72
2022/03/04 13:13:13;;;;;;;2.22;0.30;;;;;;;;;;5099559;28;20236;-72
2022/03/04 13:15:52;;;;;;;1.15;0.40;;;;;;;;;;5101568;28;20486;-73
2022/03/04 13:18:20;;;;;;;0.65;0.30;;;;;;;;;;5105037;28;20117;-72
2022/03/04 13:21:06;;;;;;;1.88;0.40;;;;;;;;;;5105271;28;20050;-72
2022/03/04 13:23:31;;;;;;;2.00;0.40;;;;;;;;;;5105970;28;20390;-73
2022/03/04 13:26:07;;;;;;;0.40;0.20;;;;;;;;;;5106239;28;20048;-73
2022/03/04 13:28:52;;;;;;;0.57;0.20;;;;;;;;;;5104310;28;20053;-73
2022/03/04 13:31:26;;;;;;;2.67;0.55;;;;;;;;;;5105803;28;20085;-73
2022/03/04 13:34:05;;;;;;;0.38;0.25;;;;;;;;;;5106044;28;20081;-72
2022/03/04 13:36:37;;;;;;;0.63;0.32;;;;;;;;;;5106144;28;20036;-73
2022/03/04 13:39:13;;;;;;;1.23;0.57;;;;;;;;;;5105932;28;20032;-73
2022/03/04 13:41:39;;;;;;;0.80;0.38;;;;;;;;;;5106003;28;20071;-73
2022/03/04 13:44:13;;;;;;;2.13;0.30;;;;;;;;;;5105898;28;20122;-73
2022/03/04 13:46:58;;;;;;;1.10;0.50;;;;;;;;;;5106016;28;20284;-72
2022/03/04 13:49:23;;;;;;;1.23;0.40;;;;;;;;;;5104404;28;20043;-73
2022/03/04 13:52:01;;;;;;;2.38;0.47;;;;;;;;;;5104421;28;20039;-73
2022/03/04 13:54:57;;;;;;;0.60;0.30;;;;;;;;;;5105683;28;20335;-73
2022/03/04 13:57:37;;;;;;;0.20;0.20;;;;;;;;;;5106114;28;20435;-73
2022/03/04 14:00:10;;;;;;;0.20;0.20;;;;;;;;;;5105838;28;20048;-73
2022/03/04 14:02:46;;;;;;;0.90;0.30;;;;;;;;;;5105542;28;20032;-73
2022/03/04 14:05:29;;;;;;;0.20;0.20;;;;;;;;;;5105371;28;20036;-73
2022/03/04 14:08:13;;;;;;;2.53;0.30;;;;;;;;;;5105499;28;20024;-73
2022/03/04 14:10:45;;;;;;;1.48;0.30;;;;;;;;;;5105811;28;20061;-74
2022/03/04 14:13:11;;;;;;;0.82;0.40;;;;;;;;;;5105351;28;20032;-73
2022/03/04 14:15:44;;;;;;;6.78;0.82;;;;;;;;;;5105485;28;20024;-73
2022/03/04 14:18:15;;;;;;;1.42;0.40;;;;;;;;;;5104467;28;20454;-73
2022/03/04 14:20:45;;;;;;;2.05;0.43;;;;;;;;;;5104252;28;20115;-74
2022/03/04 14:23:11;;;;;;;1.65;0.30;;;;;;;;;;5105508;28;20016;-73
2022/03/04 14:25:41;;;;;;;1.13;0.50;;;;;;;;;;5103430;28;20034;-73
2022/03/04 14:28:11;;;;;;;0.73;0.40;;;;;;;;;;5104834;28;20036;-74
2022/03/04 14:30:44;;;;;;;1.52;0.52;;;;;;;;;;5105114;28;20052;-74
2022/03/04 14:33:10;;;;;;;1.58;0.60;;;;;;;;;;5103845;28;20428;-74
2022/03/04 14:35:41;;;;;;;0.77;0.50;;;;;;;;;;5105559;28;20036;-74
2022/03/04 14:38:08;;;;;;;0.57;0.30;;;;;;;;;;5104843;28;20039;-73
2022/03/04 14:40:34;;;;;;;0.65;0.40;;;;;;;;;;5103767;28;20035;-73
2022/03/04 14:43:01;;;;;;;1.23;0.40;;;;;;;;;;5103759;28;20035;-73
2022/03/04 14:45:27;;;;;;;2.38;0.50;;;;;;;;;;5105033;28;20024;-72
2022/03/04 14:47:54;;;;;;;1.90;0.40;;;;;;;;;;5105244;28;20023;-73